sensor_id;sensor_type;location;lat;lon;timestamp;temperature;humidity
45643;DHT22;31358;46.008;11.144;2022-07-12T12:02:06;31.50;78.60
45643;DHT22;31358;46.008;11.144;2022-07-12T12:07:14;31.00;76.90
45643;DHT22;31358;46.008;11.144;2022-07-12T12:12:36;31.30;77.20
45643;DHT22;31358;46.008;11.144;2022-07-12T12:15:03;31.30;77.10
45643;DHT22;31358;46.008;11.144;2022-07-12T12:17:29;31.40;77.20
45643;DHT22;31358;46.008;11.144;2022-07-12T12:19:54;31.80;76.40
45643;DHT22;31358;46.008;11.144;2022-07-12T12:22:33;31.60;76.10
45643;DHT22;31358;46.008;11.144;2022-07-12T12:25:01;31.30;76.00
45643;DHT22;31358;46.008;11.144;2022-07-12T12:27:28;31.40;75.50
45643;DHT22;31358;46.008;11.144;2022-07-12T12:29:58;31.20;76.10
45643;DHT22;31358;46.008;11.144;2022-07-12T12:32:30;30.80;76.80
45643;DHT22;31358;46.008;11.144;2022-07-12T12:35:07;30.80;77.20
45643;DHT22;31358;46.008;11.144;2022-07-12T12:37:32;30.70;76.80
45643;DHT22;31358;46.008;11.144;2022-07-12T12:39:58;30.50;77.50
45643;DHT22;31358;46.008;11.144;2022-07-12T12:42:24;30.50;77.70
45643;DHT22;31358;46.008;11.144;2022-07-12T12:44:51;30.40;77.90
45643;DHT22;31358;46.008;11.144;2022-07-12T12:47:16;30.40;78.20
45643;DHT22;31358;46.008;11.144;2022-07-12T12:49:57;30.20;77.90
45643;DHT22;31358;46.008;11.144;2022-07-12T12:52:27;30.30;77.60
45643;DHT22;31358;46.008;11.144;2022-07-12T12:54:54;30.30;77.00
45643;DHT22;31358;46.008;11.144;2022-07-12T12:57:20;30.20;77.90
45643;DHT22;31358;46.008;11.144;2022-07-12T12:59:45;30.80;77.70
45643;DHT22;31358;46.008;11.144;2022-07-12T13:02:12;31.40;77.00
45643;DHT22;31358;46.008;11.144;2022-07-12T13:04:38;31.20;76.00
45643;DHT22;31358;46.008;11.144;2022-07-12T13:07:05;31.20;77.20
45643;DHT22;31358;46.008;11.144;2022-07-12T13:09:32;31.60;76.50
45643;DHT22;31358;46.008;11.144;2022-07-12T13:11:58;31.70;75.70
45643;DHT22;31358;46.008;11.144;2022-07-12T13:14:25;31.30;75.50
45643;DHT22;31358;46.008;11.144;2022-07-12T13:16:51;31.50;75.90
45643;DHT22;31358;46.008;11.144;2022-07-12T13:19:16;31.50;76.00
45643;DHT22;31358;46.008;11.144;2022-07-12T13:21:42;31.50;75.20
45643;DHT22;31358;46.008;11.144;2022-07-12T13:24:08;31.20;75.40
45643;DHT22;31358;46.008;11.144;2022-07-12T13:26:34;31.30;75.90
45643;DHT22;31358;46.008;11.144;2022-07-12T13:29:00;31.40;75.70
45643;DHT22;31358;46.008;11.144;2022-07-12T13:31:25;31.80;76.50
45643;DHT22;31358;46.008;11.144;2022-07-12T13:33:53;32.10;76.50
45643;DHT22;31358;46.008;11.144;2022-07-12T13:36:19;32.20;74.30
45643;DHT22;31358;46.008;11.144;2022-07-12T13:38:47;32.10;75.10
45643;DHT22;31358;46.008;11.144;2022-07-12T13:41:12;32.10;75.10
45643;DHT22;31358;46.008;11.144;2022-07-12T13:43:39;32.00;74.30
45643;DHT22;31358;46.008;11.144;2022-07-12T13:46:05;31.80;74.30
45643;DHT22;31358;46.008;11.144;2022-07-12T13:48:31;31.40;75.10
45643;DHT22;31358;46.008;11.144;2022-07-12T13:50:56;31.50;75.30
45643;DHT22;31358;46.008;11.144;2022-07-12T13:53:22;31.60;75.30
45643;DHT22;31358;46.008;11.144;2022-07-12T13:55:48;31.60;75.50
45643;DHT22;31358;46.008;11.144;2022-07-12T13:58:14;31.70;75.10
45643;DHT22;31358;46.008;11.144;2022-07-12T14:00:41;31.50;75.40
45643;DHT22;31358;46.008;11.144;2022-07-12T14:03:07;31.20;75.20
45643;DHT22;31358;46.008;11.144;2022-07-12T14:05:33;31.10;75.70
45643;DHT22;31358;46.008;11.144;2022-07-12T14:07:59;31.40;75.20
45643;DHT22;31358;46.008;11.144;2022-07-12T14:10:24;31.30;74.90
45643;DHT22;31358;46.008;11.144;2022-07-12T14:12:51;31.60;74.90
45643;DHT22;31358;46.008;11.144;2022-07-12T14:15:18;31.70;74.70
45643;DHT22;31358;46.008;11.144;2022-07-12T14:18:06;31.20;75.20
45643;DHT22;31358;46.008;11.144;2022-07-12T14:20:34;31.50;75.00
45643;DHT22;31358;46.008;11.144;2022-07-12T14:23:00;31.50;75.40
45643;DHT22;31358;46.008;11.144;2022-07-12T14:25:26;31.60;75.40
45643;DHT22;31358;46.008;11.144;2022-07-12T14:27:52;31.50;74.50
45643;DHT22;31358;46.008;11.144;2022-07-12T14:30:17;31.80;75.30
45643;DHT22;31358;46.008;11.144;2022-07-12T14:32:43;32.00;74.70
45643;DHT22;31358;46.008;11.144;2022-07-12T14:35:09;32.10;75.40
45643;DHT22;31358;46.008;11.144;2022-07-12T14:37:35;32.00;75.20
45643;DHT22;31358;46.008;11.144;2022-07-12T14:40:02;31.40;74.70
45643;DHT22;31358;46.008;11.144;2022-07-12T14:42:28;31.60;75.20
45643;DHT22;31358;46.008;11.144;2022-07-12T14:44:54;31.80;74.90
45643;DHT22;31358;46.008;11.144;2022-07-12T14:47:23;31.70;74.90
45643;DHT22;31358;46.008;11.144;2022-07-12T14:49:49;31.40;75.10
45643;DHT22;31358;46.008;11.144;2022-07-12T14:52:15;31.30;75.50
45643;DHT22;31358;46.008;11.144;2022-07-12T14:54:42;31.70;75.00
45643;DHT22;31358;46.008;11.144;2022-07-12T14:57:07;31.80;74.30
45643;DHT22;31358;46.008;11.144;2022-07-12T14:59:33;31.80;74.40
45643;DHT22;31358;46.008;11.144;2022-07-12T15:01:59;31.50;74.90
45643;DHT22;31358;46.008;11.144;2022-07-12T15:04:24;31.50;74.60
45643;DHT22;31358;46.008;11.144;2022-07-12T15:06:50;31.50;74.70
45643;DHT22;31358;46.008;11.144;2022-07-12T15:09:16;31.10;75.30
45643;DHT22;31358;46.008;11.144;2022-07-12T15:11:41;31.10;75.60
45643;DHT22;31358;46.008;11.144;2022-07-12T15:14:07;31.30;76.50
45643;DHT22;31358;46.008;11.144;2022-07-12T15:16:33;31.40;75.70
45643;DHT22;31358;46.008;11.144;2022-07-12T15:18:58;31.20;75.50
45643;DHT22;31358;46.008;11.144;2022-07-12T15:21:25;31.20;75.60
45643;DHT22;31358;46.008;11.144;2022-07-12T15:23:51;30.70;76.20
45643;DHT22;31358;46.008;11.144;2022-07-12T15:26:17;30.60;76.10
45643;DHT22;31358;46.008;11.144;2022-07-12T15:29:00;30.80;76.50
45643;DHT22;31358;46.008;11.144;2022-07-12T15:31:29;31.20;76.20
45643;DHT22;31358;46.008;11.144;2022-07-12T15:33:56;31.00;75.80
45643;DHT22;31358;46.008;11.144;2022-07-12T15:36:22;30.80;76.10
45643;DHT22;31358;46.008;11.144;2022-07-12T15:38:48;30.70;77.00
45643;DHT22;31358;46.008;11.144;2022-07-12T15:41:13;30.50;76.60
45643;DHT22;31358;46.008;11.144;2022-07-12T15:43:40;29.90;77.00
45643;DHT22;31358;46.008;11.144;2022-07-12T15:46:07;30.00;77.30
45643;DHT22;31358;46.008;11.144;2022-07-12T15:48:33;30.20;77.20
45643;DHT22;31358;46.008;11.144;2022-07-12T15:50:59;30.10;77.20
45643;DHT22;31358;46.008;11.144;2022-07-12T15:53:25;29.80;77.50
45643;DHT22;31358;46.008;11.144;2022-07-12T15:56:05;29.60;77.60
45643;DHT22;31358;46.008;11.144;2022-07-12T15:58:38;29.60;77.80
45643;DHT22;31358;46.008;11.144;2022-07-12T16:01:05;29.50;78.10
45643;DHT22;31358;46.008;11.144;2022-07-12T16:03:31;29.40;78.10
45643;DHT22;31358;46.008;11.144;2022-07-12T16:05:59;29.30;78.30
45643;DHT22;31358;46.008;11.144;2022-07-12T16:08:25;29.50;78.00
45643;DHT22;31358;46.008;11.144;2022-07-12T16:10:52;30.00;77.80
45643;DHT22;31358;46.008;11.144;2022-07-12T16:13:18;30.20;77.10
45643;DHT22;31358;46.008;11.144;2022-07-12T16:15:44;30.40;77.40
45643;DHT22;31358;46.008;11.144;2022-07-12T16:18:10;30.60;77.80
45643;DHT22;31358;46.008;11.144;2022-07-12T16:20:37;30.60;77.50
45643;DHT22;31358;46.008;11.144;2022-07-12T16:23:04;30.70;77.60
45643;DHT22;31358;46.008;11.144;2022-07-12T16:25:31;30.20;77.50
45643;DHT22;31358;46.008;11.144;2022-07-12T16:27:57;29.70;78.10
45643;DHT22;31358;46.008;11.144;2022-07-12T16:30:23;29.40;78.30
45643;DHT22;31358;46.008;11.144;2022-07-12T16:32:49;29.20;78.80
45643;DHT22;31358;46.008;11.144;2022-07-12T16:35:15;29.40;79.00
45643;DHT22;31358;46.008;11.144;2022-07-12T16:37:41;29.60;78.40
45643;DHT22;31358;46.008;11.144;2022-07-12T16:40:07;29.90;78.60
45643;DHT22;31358;46.008;11.144;2022-07-12T16:42:33;29.70;78.80
45643;DHT22;31358;46.008;11.144;2022-07-12T16:44:59;29.70;79.20
45643;DHT22;31358;46.008;11.144;2022-07-12T16:47:25;30.00;78.60
45643;DHT22;31358;46.008;11.144;2022-07-12T16:49:51;30.10;77.90
45643;DHT22;31358;46.008;11.144;2022-07-12T16:52:16;30.00;78.60
45643;DHT22;31358;46.008;11.144;2022-07-12T16:54:42;30.00;78.70
45643;DHT22;31358;46.008;11.144;2022-07-12T16:57:08;30.00;78.50
45643;DHT22;31358;46.008;11.144;2022-07-12T16:59:33;30.10;78.60
45643;DHT22;31358;46.008;11.144;2022-07-12T17:02:00;30.20;79.20
45643;DHT22;31358;46.008;11.144;2022-07-12T17:04:27;30.20;78.70
45643;DHT22;31358;46.008;11.144;2022-07-12T17:06:54;30.30;78.10
45643;DHT22;31358;46.008;11.144;2022-07-12T17:09:19;30.20;78.30
45643;DHT22;31358;46.008;11.144;2022-07-12T17:11:45;30.40;78.30
45643;DHT22;31358;46.008;11.144;2022-07-12T17:14:11;30.30;78.30
45643;DHT22;31358;46.008;11.144;2022-07-12T17:16:36;30.30;78.10
45643;DHT22;31358;46.008;11.144;2022-07-12T17:19:03;30.20;78.60
45643;DHT22;31358;46.008;11.144;2022-07-12T17:21:30;30.20;78.60
45643;DHT22;31358;46.008;11.144;2022-07-12T17:23:56;29.80;79.20
45643;DHT22;31358;46.008;11.144;2022-07-12T17:26:22;29.60;80.40
45643;DHT22;31358;46.008;11.144;2022-07-12T17:28:47;29.30;80.80
45643;DHT22;31358;46.008;11.144;2022-07-12T17:31:13;28.70;81.20
45643;DHT22;31358;46.008;11.144;2022-07-12T17:33:39;28.60;81.40
45643;DHT22;31358;46.008;11.144;2022-07-12T17:36:05;28.60;81.60
45643;DHT22;31358;46.008;11.144;2022-07-12T17:38:31;28.40;82.40
45643;DHT22;31358;46.008;11.144;2022-07-12T17:40:57;28.30;82.70
45643;DHT22;31358;46.008;11.144;2022-07-12T17:43:23;28.30;82.80
45643;DHT22;31358;46.008;11.144;2022-07-12T17:45:49;28.10;82.90
45643;DHT22;31358;46.008;11.144;2022-07-12T17:48:14;28.20;83.20
45643;DHT22;31358;46.008;11.144;2022-07-12T17:50:40;28.10;83.10
45643;DHT22;31358;46.008;11.144;2022-07-12T17:53:06;28.00;83.70
45643;DHT22;31358;46.008;11.144;2022-07-12T17:55:31;28.00;83.60
45643;DHT22;31358;46.008;11.144;2022-07-12T17:57:57;27.70;83.90
45643;DHT22;31358;46.008;11.144;2022-07-12T18:00:41;27.70;84.20
45643;DHT22;31358;46.008;11.144;2022-07-12T18:03:09;27.70;84.30
45643;DHT22;31358;46.008;11.144;2022-07-12T18:05:35;27.60;84.50
45643;DHT22;31358;46.008;11.144;2022-07-12T18:08:00;27.50;84.90
45643;DHT22;31358;46.008;11.144;2022-07-12T18:10:26;27.20;85.20
45643;DHT22;31358;46.008;11.144;2022-07-12T18:12:52;27.10;85.30
45643;DHT22;31358;46.008;11.144;2022-07-12T18:15:35;27.10;85.40
45643;DHT22;31358;46.008;11.144;2022-07-12T18:18:01;27.10;85.40
45643;DHT22;31358;46.008;11.144;2022-07-12T18:20:32;27.10;85.50
45643;DHT22;31358;46.008;11.144;2022-07-12T18:22:58;26.90;85.80
45643;DHT22;31358;46.008;11.144;2022-07-12T18:25:24;26.70;86.30
45643;DHT22;31358;46.008;11.144;2022-07-12T18:27:50;26.80;86.20
45643;DHT22;31358;46.008;11.144;2022-07-12T18:30:18;26.80;86.00
45643;DHT22;31358;46.008;11.144;2022-07-12T18:32:45;26.80;86.20
45643;DHT22;31358;46.008;11.144;2022-07-12T18:35:11;26.70;86.40
45643;DHT22;31358;46.008;11.144;2022-07-12T18:37:40;26.70;86.50
45643;DHT22;31358;46.008;11.144;2022-07-12T18:40:07;26.60;86.70
45643;DHT22;31358;46.008;11.144;2022-07-12T18:42:34;26.50;86.80
45643;DHT22;31358;46.008;11.144;2022-07-12T18:45:00;26.50;87.20
45643;DHT22;31358;46.008;11.144;2022-07-12T18:47:25;26.50;87.10
45643;DHT22;31358;46.008;11.144;2022-07-12T18:49:51;26.50;87.10
45643;DHT22;31358;46.008;11.144;2022-07-12T18:52:17;26.40;87.10
45643;DHT22;31358;46.008;11.144;2022-07-12T18:54:43;26.30;87.50
45643;DHT22;31358;46.008;11.144;2022-07-12T18:57:09;26.30;87.50
45643;DHT22;31358;46.008;11.144;2022-07-12T18:59:36;26.10;87.70
45643;DHT22;31358;46.008;11.144;2022-07-12T19:02:02;25.90;88.00
45643;DHT22;31358;46.008;11.144;2022-07-12T19:04:28;25.90;88.10
45643;DHT22;31358;46.008;11.144;2022-07-12T19:06:54;25.90;88.10
45643;DHT22;31358;46.008;11.144;2022-07-12T19:09:20;26.00;88.10
45643;DHT22;31358;46.008;11.144;2022-07-12T19:11:46;26.00;88.20
45643;DHT22;31358;46.008;11.144;2022-07-12T19:14:11;26.00;88.20
45643;DHT22;31358;46.008;11.144;2022-07-12T19:16:37;26.00;88.40
45643;DHT22;31358;46.008;11.144;2022-07-12T19:19:03;25.90;88.50
45643;DHT22;31358;46.008;11.144;2022-07-12T19:21:30;25.90;88.70
45643;DHT22;31358;46.008;11.144;2022-07-12T19:23:55;25.80;88.90
45643;DHT22;31358;46.008;11.144;2022-07-12T19:26:21;25.70;89.00
45643;DHT22;31358;46.008;11.144;2022-07-12T19:28:47;25.70;89.10
45643;DHT22;31358;46.008;11.144;2022-07-12T19:31:12;25.60;89.30
45643;DHT22;31358;46.008;11.144;2022-07-12T19:33:38;25.70;89.50
45643;DHT22;31358;46.008;11.144;2022-07-12T19:36:04;25.50;89.60
45643;DHT22;31358;46.008;11.144;2022-07-12T19:38:30;25.50;89.70
45643;DHT22;31358;46.008;11.144;2022-07-12T19:40:56;25.60;89.80
45643;DHT22;31358;46.008;11.144;2022-07-12T19:43:22;25.50;89.70
45643;DHT22;31358;46.008;11.144;2022-07-12T19:45:48;25.40;90.00
45643;DHT22;31358;46.008;11.144;2022-07-12T19:48:15;25.20;90.30
45643;DHT22;31358;46.008;11.144;2022-07-12T19:50:41;25.00;90.40
45643;DHT22;31358;46.008;11.144;2022-07-12T19:53:07;25.10;90.50
45643;DHT22;31358;46.008;11.144;2022-07-12T19:55:32;25.10;90.50
45643;DHT22;31358;46.008;11.144;2022-07-12T19:57:58;25.00;90.50
45643;DHT22;31358;46.008;11.144;2022-07-12T20:00:24;24.80;90.80
45643;DHT22;31358;46.008;11.144;2022-07-12T20:02:50;24.70;91.00
45643;DHT22;31358;46.008;11.144;2022-07-12T20:05:16;24.60;91.10
45643;DHT22;31358;46.008;11.144;2022-07-12T20:07:41;24.50;91.50
45643;DHT22;31358;46.008;11.144;2022-07-12T20:10:07;24.40;91.40
45643;DHT22;31358;46.008;11.144;2022-07-12T20:12:33;24.20;91.70
45643;DHT22;31358;46.008;11.144;2022-07-12T20:14:59;24.10;91.90
45643;DHT22;31358;46.008;11.144;2022-07-12T20:17:25;24.10;91.90
45643;DHT22;31358;46.008;11.144;2022-07-12T20:19:50;24.10;92.00
45643;DHT22;31358;46.008;11.144;2022-07-12T20:22:16;24.10;92.00
45643;DHT22;31358;46.008;11.144;2022-07-12T20:24:42;24.10;92.00
45643;DHT22;31358;46.008;11.144;2022-07-12T20:27:07;24.10;92.00
45643;DHT22;31358;46.008;11.144;2022-07-12T20:29:33;24.00;92.30
45643;DHT22;31358;46.008;11.144;2022-07-12T20:31:58;24.10;92.10
45643;DHT22;31358;46.008;11.144;2022-07-12T20:34:24;24.00;92.30
45643;DHT22;31358;46.008;11.144;2022-07-12T20:37:01;23.90;92.40
45643;DHT22;31358;46.008;11.144;2022-07-12T20:39:28;24.00;92.40
45643;DHT22;31358;46.008;11.144;2022-07-12T20:41:55;23.90;92.50
45643;DHT22;31358;46.008;11.144;2022-07-12T20:44:24;23.80;92.60
45643;DHT22;31358;46.008;11.144;2022-07-12T20:46:54;23.60;92.80
45643;DHT22;31358;46.008;11.144;2022-07-12T20:49:20;23.50;92.90
45643;DHT22;31358;46.008;11.144;2022-07-12T20:51:48;23.50;93.10
45643;DHT22;31358;46.008;11.144;2022-07-12T20:54:15;23.30;93.20
45643;DHT22;31358;46.008;11.144;2022-07-12T20:56:42;23.40;93.20
45643;DHT22;31358;46.008;11.144;2022-07-12T20:59:08;23.30;93.30
45643;DHT22;31358;46.008;11.144;2022-07-12T21:01:47;23.30;93.30
45643;DHT22;31358;46.008;11.144;2022-07-12T21:04:14;23.30;93.40
45643;DHT22;31358;46.008;11.144;2022-07-12T21:06:40;23.20;93.40
45643;DHT22;31358;46.008;11.144;2022-07-12T21:09:07;23.20;93.60
45643;DHT22;31358;46.008;11.144;2022-07-12T21:11:34;23.10;93.60
45643;DHT22;31358;46.008;11.144;2022-07-12T21:14:04;23.10;93.60
45643;DHT22;31358;46.008;11.144;2022-07-12T21:16:31;23.20;93.60
45643;DHT22;31358;46.008;11.144;2022-07-12T21:18:56;23.10;93.70
45643;DHT22;31358;46.008;11.144;2022-07-12T21:21:22;23.10;93.80
45643;DHT22;31358;46.008;11.144;2022-07-12T21:23:48;23.00;93.90
45643;DHT22;31358;46.008;11.144;2022-07-12T21:26:15;22.90;94.00
45643;DHT22;31358;46.008;11.144;2022-07-12T21:28:40;22.90;94.10
45643;DHT22;31358;46.008;11.144;2022-07-12T21:31:06;22.70;94.40
45643;DHT22;31358;46.008;11.144;2022-07-12T21:33:33;22.60;94.70
45643;DHT22;31358;46.008;11.144;2022-07-12T21:36:00;22.70;94.60
45643;DHT22;31358;46.008;11.144;2022-07-12T21:38:26;22.80;94.50
45643;DHT22;31358;46.008;11.144;2022-07-12T21:40:51;22.80;94.50
45643;DHT22;31358;46.008;11.144;2022-07-12T21:43:17;22.80;94.70
45643;DHT22;31358;46.008;11.144;2022-07-12T21:45:43;22.70;94.80
45643;DHT22;31358;46.008;11.144;2022-07-12T21:48:09;22.80;94.80
45643;DHT22;31358;46.008;11.144;2022-07-12T21:50:35;22.80;94.70
45643;DHT22;31358;46.008;11.144;2022-07-12T21:53:00;22.70;94.80
45643;DHT22;31358;46.008;11.144;2022-07-12T21:55:26;22.70;94.90
45643;DHT22;31358;46.008;11.144;2022-07-12T21:57:52;22.70;94.90
45643;DHT22;31358;46.008;11.144;2022-07-12T22:00:19;22.80;94.80
45643;DHT22;31358;46.008;11.144;2022-07-12T22:02:46;22.80;94.70
45643;DHT22;31358;46.008;11.144;2022-07-12T22:05:11;22.80;94.70
45643;DHT22;31358;46.008;11.144;2022-07-12T22:07:37;22.70;94.90
45643;DHT22;31358;46.008;11.144;2022-07-12T22:10:04;22.70;95.00
45643;DHT22;31358;46.008;11.144;2022-07-12T22:12:30;22.60;95.00
45643;DHT22;31358;46.008;11.144;2022-07-12T22:14:56;22.70;95.10
45643;DHT22;31358;46.008;11.144;2022-07-12T22:17:21;22.60;95.20
45643;DHT22;31358;46.008;11.144;2022-07-12T22:19:47;22.70;95.20
45643;DHT22;31358;46.008;11.144;2022-07-12T22:22:13;22.60;95.20
45643;DHT22;31358;46.008;11.144;2022-07-12T22:24:38;22.60;95.40
45643;DHT22;31358;46.008;11.144;2022-07-12T22:27:04;22.60;95.50
45643;DHT22;31358;46.008;11.144;2022-07-12T22:29:30;22.50;95.60
45643;DHT22;31358;46.008;11.144;2022-07-12T22:31:55;22.60;95.60
45643;DHT22;31358;46.008;11.144;2022-07-12T22:34:21;22.50;95.60
45643;DHT22;31358;46.008;11.144;2022-07-12T22:36:46;22.50;95.60
45643;DHT22;31358;46.008;11.144;2022-07-12T22:39:12;22.40;95.70
45643;DHT22;31358;46.008;11.144;2022-07-12T22:41:38;22.30;95.80
45643;DHT22;31358;46.008;11.144;2022-07-12T22:44:03;22.40;95.90
45643;DHT22;31358;46.008;11.144;2022-07-12T22:46:29;22.50;95.80
45643;DHT22;31358;46.008;11.144;2022-07-12T22:48:55;22.30;95.80
45643;DHT22;31358;46.008;11.144;2022-07-12T22:51:20;22.20;96.00
45643;DHT22;31358;46.008;11.144;2022-07-12T22:54:05;22.20;96.20
45643;DHT22;31358;46.008;11.144;2022-07-12T22:56:30;22.10;96.10
45643;DHT22;31358;46.008;11.144;2022-07-12T22:58:56;22.10;96.20
45643;DHT22;31358;46.008;11.144;2022-07-12T23:01:21;22.00;96.20
45643;DHT22;31358;46.008;11.144;2022-07-12T23:03:48;22.00;96.20
45643;DHT22;31358;46.008;11.144;2022-07-12T23:06:13;22.10;96.00
45643;DHT22;31358;46.008;11.144;2022-07-12T23:08:39;22.20;95.90
45643;DHT22;31358;46.008;11.144;2022-07-12T23:11:05;22.20;95.80
45643;DHT22;31358;46.008;11.144;2022-07-12T23:13:30;22.10;95.90
45643;DHT22;31358;46.008;11.144;2022-07-12T23:15:56;22.00;96.10
45643;DHT22;31358;46.008;11.144;2022-07-12T23:18:22;21.90;96.20
45643;DHT22;31358;46.008;11.144;2022-07-12T23:20:47;21.90;96.20
45643;DHT22;31358;46.008;11.144;2022-07-12T23:23:13;21.80;96.40
45643;DHT22;31358;46.008;11.144;2022-07-12T23:25:39;21.80;96.40
45643;DHT22;31358;46.008;11.144;2022-07-12T23:28:04;21.90;96.50
45643;DHT22;31358;46.008;11.144;2022-07-12T23:30:30;21.90;96.40
45643;DHT22;31358;46.008;11.144;2022-07-12T23:32:56;21.90;96.40
45643;DHT22;31358;46.008;11.144;2022-07-12T23:35:21;21.80;96.50
45643;DHT22;31358;46.008;11.144;2022-07-12T23:37:47;21.80;96.70
45643;DHT22;31358;46.008;11.144;2022-07-12T23:40:13;21.80;96.70
45643;DHT22;31358;46.008;11.144;2022-07-12T23:42:38;21.80;96.60
45643;DHT22;31358;46.008;11.144;2022-07-12T23:45:05;21.80;96.60
45643;DHT22;31358;46.008;11.144;2022-07-12T23:47:30;21.80;96.70
45643;DHT22;31358;46.008;11.144;2022-07-12T23:49:56;21.80;96.60
45643;DHT22;31358;46.008;11.144;2022-07-12T23:52:22;21.80;96.70
45643;DHT22;31358;46.008;11.144;2022-07-12T23:54:48;21.80;96.60
45643;DHT22;31358;46.008;11.144;2022-07-12T23:57:14;21.90;96.40
45643;DHT22;31358;46.008;11.144;2022-07-12T23:59:39;22.00;96.20
